createdAt,value
2018-06-04T00:01:54.253Z,12.70
2018-06-04T00:04:22.785Z,13.40
2018-06-04T00:06:51.201Z,11.90
2018-06-04T00:09:19.603Z,11.60
2018-06-04T00:11:48.008Z,11.70
2018-06-04T00:14:16.382Z,11.80
2018-06-04T00:16:44.909Z,11.47
2018-06-04T00:19:13.329Z,12.00
2018-06-04T00:21:41.666Z,12.70
2018-06-04T00:24:10.086Z,10.77
2018-06-04T00:26:38.531Z,11.23
2018-06-04T00:29:06.950Z,12.13
2018-06-04T00:31:35.338Z,12.53
2018-06-04T00:34:03.748Z,11.73
2018-06-04T00:36:32.181Z,11.53
2018-06-04T00:39:00.556Z,11.63
2018-06-04T00:41:29.008Z,12.17
2018-06-04T00:43:57.829Z,12.00
2018-06-04T00:46:26.191Z,12.23
2018-06-04T00:48:54.591Z,11.73
2018-06-04T00:51:23.024Z,12.10
2018-06-04T00:53:51.411Z,12.80
2018-06-04T00:56:21.030Z,13.23
2018-06-04T00:58:49.475Z,13.80
2018-06-04T01:01:17.858Z,18.27
2018-06-04T01:03:46.321Z,23.80
2018-06-04T01:06:14.731Z,25.03
2018-06-04T01:08:43.271Z,25.60
2018-06-04T01:11:11.653Z,23.67
2018-06-04T01:13:40.052Z,22.63
2018-06-04T01:16:08.482Z,22.27
2018-06-04T01:18:36.900Z,20.03
2018-06-04T01:21:05.435Z,16.93
2018-06-04T01:23:34.733Z,17.17
2018-06-04T01:26:03.213Z,16.70
2018-06-04T01:28:31.680Z,16.13
2018-06-04T01:31:00.090Z,16.77
2018-06-04T01:33:28.568Z,17.03
2018-06-04T01:35:57.118Z,16.60
2018-06-04T01:38:25.543Z,16.70
2018-06-04T01:40:53.896Z,15.70
2018-06-04T01:43:22.426Z,16.43
2018-06-04T01:45:50.905Z,15.97
2018-06-04T01:48:19.309Z,15.77
2018-06-04T01:50:47.761Z,16.23
2018-06-04T01:53:16.138Z,15.20
2018-06-04T01:55:44.491Z,14.80
2018-06-04T01:58:12.964Z,14.97
2018-06-04T02:00:42.783Z,14.00
2018-06-04T02:03:11.161Z,12.90
2018-06-04T02:05:39.530Z,12.70
2018-06-04T02:08:08.500Z,14.07
2018-06-04T02:10:36.947Z,14.27
2018-06-04T02:13:05.442Z,12.73
2018-06-04T02:15:33.870Z,12.93
2018-06-04T02:18:08.675Z,14.23
2018-06-04T02:20:37.157Z,13.00
2018-06-04T02:23:05.554Z,13.40
2018-06-04T02:25:33.901Z,13.77
2018-06-04T02:28:02.315Z,12.10
2018-06-04T02:30:30.690Z,12.60
2018-06-04T02:32:59.145Z,11.73
2018-06-04T02:35:27.674Z,11.67
2018-06-04T02:37:56.152Z,11.23
2018-06-04T02:40:24.574Z,11.10
2018-06-04T02:42:52.970Z,11.10
2018-06-04T02:45:21.406Z,11.83
2018-06-04T02:47:51.076Z,11.80
2018-06-04T02:50:19.536Z,11.97
2018-06-04T02:52:47.949Z,11.40
2018-06-04T02:55:16.547Z,12.70
2018-06-04T02:57:44.882Z,12.37
2018-06-04T03:00:13.323Z,11.93
2018-06-04T03:02:41.724Z,12.67
2018-06-04T03:05:10.092Z,11.30
2018-06-04T03:07:38.511Z,11.67
2018-06-04T03:10:06.909Z,11.83
2018-06-04T03:12:35.306Z,12.00
2018-06-04T03:15:03.731Z,10.97
2018-06-04T03:17:32.103Z,12.00
2018-06-04T03:20:00.573Z,12.47
2018-06-04T03:22:28.995Z,11.70
2018-06-04T03:24:57.512Z,11.43
2018-06-04T03:27:25.904Z,11.30
2018-06-04T03:29:54.337Z,11.30
2018-06-04T03:32:22.785Z,10.90
2018-06-04T03:34:51.231Z,11.50
2018-06-04T03:37:19.665Z,12.20
2018-06-04T03:39:48.100Z,12.60
2018-06-04T03:42:16.546Z,13.20
2018-06-04T03:44:44.975Z,13.23
2018-06-04T03:47:13.488Z,13.00
2018-06-04T03:49:41.970Z,13.40
2018-06-04T03:52:10.410Z,14.57
2018-06-04T03:54:38.876Z,18.30
2018-06-04T03:57:07.277Z,14.30
2018-06-04T03:59:35.822Z,12.20
2018-06-04T04:02:04.250Z,12.20
2018-06-04T04:04:32.684Z,12.67
2018-06-04T04:07:01.106Z,13.90
2018-06-04T04:09:29.558Z,13.60
2018-06-04T04:11:57.885Z,13.30
2018-06-04T04:14:26.308Z,13.77
2018-06-04T04:16:54.804Z,13.40
2018-06-04T04:19:23.382Z,12.80
2018-06-04T04:21:51.987Z,12.30
2018-06-04T04:24:20.407Z,12.70
2018-06-04T04:26:48.884Z,12.27
2018-06-04T04:29:17.304Z,12.77
2018-06-04T04:31:45.698Z,13.30
2018-06-04T04:34:14.021Z,13.47
2018-06-04T04:36:42.463Z,12.80
2018-06-04T04:39:10.870Z,12.87
2018-06-04T04:41:39.345Z,12.60
2018-06-04T04:44:07.726Z,13.43
2018-06-04T04:46:36.768Z,11.70
2018-06-04T04:49:05.447Z,13.13
2018-06-04T04:51:33.915Z,12.10
2018-06-04T04:54:02.464Z,11.30
2018-06-04T04:56:30.836Z,13.20
2018-06-04T04:58:59.236Z,12.53
2018-06-04T05:01:27.827Z,13.10
2018-06-04T05:03:56.378Z,11.97
2018-06-04T05:06:24.833Z,12.90
2018-06-04T05:08:53.321Z,12.40
2018-06-04T05:11:21.472Z,11.40
2018-06-04T05:13:49.913Z,12.40
2018-06-04T05:16:18.317Z,12.20
2018-06-04T05:18:46.908Z,11.77
2018-06-04T05:21:15.233Z,12.60
2018-06-04T05:23:43.679Z,11.70
2018-06-04T05:26:12.003Z,12.50
2018-06-04T05:28:40.484Z,11.47
2018-06-04T05:31:08.918Z,10.63
2018-06-04T05:33:37.429Z,11.70
2018-06-04T05:36:05.820Z,11.20
2018-06-04T05:38:34.227Z,11.87
2018-06-04T05:41:02.678Z,11.50
2018-06-04T05:43:31.196Z,11.77
2018-06-04T05:45:59.729Z,10.80
2018-06-04T05:48:28.172Z,10.87
2018-06-04T05:50:56.533Z,11.40
2018-06-04T05:53:24.893Z,11.03
2018-06-04T05:55:53.382Z,10.30
2018-06-04T05:58:21.819Z,11.53
2018-06-04T06:00:50.225Z,11.03
2018-06-04T06:03:18.550Z,11.63
2018-06-04T06:05:46.911Z,11.03
2018-06-04T06:08:15.409Z,11.87
2018-06-04T06:10:43.902Z,11.50
2018-06-04T06:13:12.324Z,11.13
2018-06-04T06:15:40.779Z,11.20
2018-06-04T06:18:09.255Z,11.43
2018-06-04T06:20:37.720Z,11.73
2018-06-04T06:23:06.281Z,10.70
2018-06-04T06:25:34.865Z,11.17
2018-06-04T06:28:03.245Z,11.73
2018-06-04T06:30:31.751Z,10.60
2018-06-04T06:33:00.414Z,11.63
2018-06-04T06:35:28.993Z,11.20
2018-06-04T06:37:57.485Z,11.73
2018-06-04T06:40:26.590Z,11.50
2018-06-04T06:42:55.062Z,11.20
2018-06-04T06:45:23.548Z,11.50
2018-06-04T06:47:51.970Z,12.43
2018-06-04T06:50:20.414Z,12.67
2018-06-04T06:52:48.826Z,12.77
2018-06-04T06:55:17.234Z,12.57
2018-06-04T06:57:45.631Z,12.70
2018-06-04T07:00:14.677Z,13.17
2018-06-04T07:02:43.044Z,13.97
2018-06-04T07:05:11.508Z,12.40
2018-06-04T07:07:40.046Z,13.33
2018-06-04T07:10:08.456Z,14.27
2018-06-04T07:12:36.949Z,12.47
2018-06-04T07:15:05.361Z,13.50
2018-06-04T07:17:33.898Z,13.60
2018-06-04T07:20:02.387Z,13.63
2018-06-04T07:22:30.923Z,14.30
2018-06-04T07:24:59.444Z,12.10
2018-06-04T07:27:27.887Z,12.43
2018-06-04T07:29:56.348Z,12.10
2018-06-04T07:32:24.827Z,11.53
2018-06-04T07:34:53.382Z,11.70
2018-06-04T07:37:21.900Z,11.23
2018-06-04T07:39:50.302Z,11.40
2018-06-04T07:42:18.725Z,11.37
2018-06-04T07:44:53.475Z,11.73
2018-06-04T07:47:21.853Z,12.10
2018-06-04T07:49:50.432Z,13.40
2018-06-04T07:52:18.858Z,12.17
2018-06-04T07:54:47.328Z,12.37
2018-06-04T07:57:15.898Z,11.97
2018-06-04T07:59:44.391Z,12.20
2018-06-04T08:02:12.765Z,11.90
2018-06-04T08:04:41.306Z,11.40
2018-06-04T08:07:09.742Z,10.83
2018-06-04T08:09:38.094Z,12.90
2018-06-04T08:12:06.600Z,11.40
2018-06-04T08:14:35.084Z,12.83
2018-06-04T08:17:03.514Z,12.13
2018-06-04T08:19:31.945Z,13.27
2018-06-04T08:22:03.352Z,12.20
2018-06-04T08:24:31.871Z,12.30
2018-06-04T08:27:00.254Z,11.60
2018-06-04T08:29:28.977Z,12.37
2018-06-04T08:31:57.457Z,13.20
2018-06-04T08:34:25.929Z,12.80
2018-06-04T08:36:54.340Z,12.30
2018-06-04T08:39:22.780Z,12.40
2018-06-04T08:41:51.246Z,12.23
2018-06-04T08:44:19.614Z,12.67
2018-06-04T08:46:47.948Z,12.47
2018-06-04T08:49:16.304Z,12.37
2018-06-04T08:51:45.104Z,13.40
2018-06-04T08:54:13.514Z,13.13
2018-06-04T08:56:42.036Z,13.13
2018-06-04T08:59:10.764Z,13.00
2018-06-04T09:01:39.234Z,12.30
2018-06-04T09:04:07.753Z,13.07
2018-06-04T09:06:36.223Z,12.80
2018-06-04T09:09:06.511Z,13.43
2018-06-04T09:11:35.016Z,13.57
2018-06-04T09:14:03.541Z,13.90
2018-06-04T09:16:32.153Z,13.80
2018-06-04T09:19:00.578Z,13.23
2018-06-04T09:21:29.047Z,13.83
2018-06-04T09:23:57.395Z,14.23
2018-06-04T09:26:25.864Z,14.10
2018-06-04T09:28:54.193Z,14.20
2018-06-04T09:31:22.609Z,14.10
2018-06-04T09:33:51.176Z,13.80
2018-06-04T09:36:20.176Z,14.00
2018-06-04T09:38:48.706Z,15.03
2018-06-04T09:41:17.122Z,13.73
2018-06-04T09:43:46.101Z,14.43
2018-06-04T09:46:14.701Z,14.47
2018-06-04T09:48:43.226Z,12.20
2018-06-04T09:51:11.867Z,14.43
2018-06-04T09:53:40.350Z,13.80
2018-06-04T09:56:08.727Z,12.80
2018-06-04T09:58:37.270Z,13.87
2018-06-04T10:01:05.647Z,12.33
2018-06-04T10:03:34.068Z,12.43
2018-06-04T10:06:02.495Z,11.97
2018-06-04T10:08:30.892Z,11.67
2018-06-04T10:10:59.539Z,13.57
2018-06-04T10:13:27.918Z,12.57
2018-06-04T10:15:56.508Z,13.03
2018-06-04T10:18:25.017Z,12.30
2018-06-04T10:20:53.552Z,11.67
2018-06-04T10:23:22.060Z,13.57
2018-06-04T10:25:50.585Z,12.97
2018-06-04T10:28:18.733Z,13.30
2018-06-04T10:30:47.342Z,12.60
2018-06-04T10:33:15.918Z,13.40
2018-06-04T10:35:44.376Z,12.97
2018-06-04T10:38:12.868Z,12.57
2018-06-04T10:40:41.335Z,12.57
2018-06-04T10:43:09.728Z,13.83
2018-06-04T10:45:38.321Z,13.80
2018-06-04T10:48:07.400Z,12.67
2018-06-04T10:50:35.797Z,14.27
2018-06-04T10:53:04.427Z,12.57
2018-06-04T10:55:32.847Z,12.77
2018-06-04T10:58:01.295Z,13.47
2018-06-04T11:00:29.745Z,12.33
2018-06-04T11:02:58.475Z,13.13
2018-06-04T11:05:26.960Z,12.50
2018-06-04T11:07:55.426Z,14.80
2018-06-04T11:10:23.897Z,13.80
2018-06-04T11:12:52.359Z,12.27
2018-06-04T11:15:20.872Z,11.70
2018-06-04T11:17:49.308Z,14.10
2018-06-04T11:20:17.780Z,13.07
2018-06-04T11:22:46.504Z,13.87
2018-06-04T11:25:14.956Z,15.87
2018-06-04T11:27:43.464Z,16.70
2018-06-04T11:30:11.889Z,14.10
2018-06-04T11:32:40.372Z,14.00
2018-06-04T11:35:09.171Z,14.93
2018-06-04T11:37:38.111Z,16.10
2018-06-04T11:40:06.558Z,14.13
2018-06-04T11:42:35.083Z,14.70
2018-06-04T11:45:03.674Z,14.17
2018-06-04T11:47:32.130Z,16.70
2018-06-04T11:50:00.620Z,15.30
2018-06-04T11:52:29.048Z,14.50
2018-06-04T11:54:57.383Z,14.03
2018-06-04T11:57:25.826Z,15.27
2018-06-04T11:59:54.175Z,15.10
2018-06-04T12:02:22.585Z,13.88
2018-06-04T12:04:50.934Z,12.88
2018-06-04T12:07:19.387Z,13.70
2018-06-04T12:09:48.313Z,12.50
2018-06-04T12:12:16.722Z,13.60
2018-06-04T12:14:45.148Z,13.58
2018-06-04T12:17:13.768Z,13.03
2018-06-04T12:19:42.144Z,13.80
2018-06-04T12:22:10.635Z,15.70
2018-06-04T12:24:39.099Z,15.50
2018-06-04T12:27:07.607Z,15.05
2018-06-04T12:29:36.230Z,14.05
2018-06-04T12:32:04.846Z,14.47
2018-06-04T12:34:33.925Z,13.55
2018-06-04T12:37:02.333Z,13.08
2018-06-04T12:39:30.856Z,13.30
2018-06-04T12:41:59.324Z,12.35
2018-06-04T12:44:27.824Z,11.93
2018-06-04T12:46:56.251Z,11.10
2018-06-04T12:49:24.743Z,11.10
2018-06-04T12:52:56.412Z,13.35
2018-06-04T12:55:24.943Z,10.43
2018-06-04T12:57:54.464Z,11.65
2018-06-04T13:00:22.900Z,11.30
2018-06-04T13:02:51.355Z,11.40
2018-06-04T13:05:19.852Z,11.38
2018-06-04T13:07:48.348Z,12.18
2018-06-04T13:10:16.795Z,11.05
2018-06-04T13:12:45.315Z,11.30
2018-06-04T13:15:13.832Z,10.80
2018-06-04T13:17:42.372Z,11.60
2018-06-04T13:20:10.842Z,12.05
2018-06-04T13:22:39.378Z,12.98
2018-06-04T13:25:07.807Z,11.63
2018-06-04T13:27:37.206Z,12.40
2018-06-04T13:30:05.732Z,11.35
2018-06-04T13:32:34.254Z,11.95
2018-06-04T13:35:03.362Z,10.63
2018-06-04T13:37:31.917Z,11.95
2018-06-04T13:40:00.557Z,10.53
2018-06-04T13:42:29.200Z,12.47
2018-06-04T13:44:57.647Z,11.73
2018-06-04T13:47:26.182Z,11.18
2018-06-04T13:49:54.650Z,11.63
2018-06-04T13:52:23.245Z,11.10
2018-06-04T13:54:51.828Z,10.68
2018-06-04T13:57:20.447Z,10.93
2018-06-04T13:59:48.941Z,10.10
2018-06-04T14:02:17.479Z,11.20
2018-06-04T14:04:45.845Z,11.88
2018-06-04T14:07:14.261Z,11.30
2018-06-04T14:09:42.712Z,11.12
2018-06-04T14:12:11.273Z,11.48
2018-06-04T14:14:39.620Z,11.80
2018-06-04T14:17:08.041Z,12.28
2018-06-04T14:19:36.523Z,13.22
2018-06-04T14:22:05.142Z,15.05
2018-06-04T14:24:33.636Z,14.75
2018-06-04T14:27:02.072Z,16.65
2018-06-04T14:29:30.511Z,16.67
2018-06-04T14:31:58.890Z,16.07
2018-06-04T14:34:27.294Z,15.48
2018-06-04T14:36:55.649Z,16.73
2018-06-04T14:39:24.008Z,16.70
2018-06-04T14:41:52.392Z,14.67
2018-06-04T14:44:20.886Z,15.70
2018-06-04T14:46:49.360Z,14.40
2018-06-04T14:49:17.778Z,16.47
2018-06-04T14:51:46.580Z,14.53
2018-06-04T14:54:14.972Z,14.93
2018-06-04T14:56:43.318Z,14.50
2018-06-04T14:59:11.738Z,13.67
2018-06-04T15:01:40.064Z,13.90
2018-06-04T15:04:08.388Z,14.10
2018-06-04T15:06:36.982Z,13.08
2018-06-04T15:09:07.887Z,11.78
2018-06-04T15:11:36.536Z,12.70
2018-06-04T15:14:04.842Z,12.00
2018-06-04T15:16:33.654Z,12.07
2018-06-04T15:19:02.012Z,11.70
2018-06-04T15:21:30.104Z,12.95
2018-06-04T15:23:58.431Z,12.70
2018-06-04T15:26:26.752Z,12.10
2018-06-04T15:28:55.106Z,12.00
2018-06-04T15:31:23.503Z,12.03
2018-06-04T15:33:51.858Z,12.63
2018-06-04T15:36:20.182Z,12.90
2018-06-04T15:38:48.625Z,11.30
2018-06-04T15:41:17.017Z,12.23
2018-06-04T15:43:45.384Z,11.57
2018-06-04T15:46:13.718Z,11.25
2018-06-04T15:48:42.113Z,10.40
2018-06-04T15:51:10.559Z,10.98
2018-06-04T15:53:38.875Z,10.85
2018-06-04T15:56:07.257Z,10.00
2018-06-04T15:58:35.882Z,11.12
2018-06-04T16:01:04.239Z,10.57
2018-06-04T16:03:32.574Z,10.40
2018-06-04T16:06:00.985Z,9.43
2018-06-04T16:08:29.316Z,10.60
2018-06-04T16:10:57.686Z,10.77
2018-06-04T16:13:26.086Z,10.67
2018-06-04T16:15:54.492Z,10.50
2018-06-04T16:18:23.036Z,9.97
2018-06-04T16:20:51.523Z,10.30
2018-06-04T16:23:22.985Z,10.70
2018-06-04T16:25:51.392Z,11.53
2018-06-04T16:28:19.938Z,11.07
2018-06-04T16:30:48.438Z,11.37
2018-06-04T16:33:16.823Z,11.80
2018-06-04T16:35:45.168Z,10.63
2018-06-04T16:38:13.624Z,10.50
2018-06-04T16:40:41.952Z,11.00
2018-06-04T16:43:10.466Z,10.13
2018-06-04T16:45:38.937Z,10.67
2018-06-04T16:48:07.306Z,10.20
2018-06-04T16:50:35.883Z,10.60
2018-06-04T16:53:04.189Z,9.97
2018-06-04T16:55:32.583Z,10.97
2018-06-04T16:58:01.122Z,10.17
2018-06-04T17:00:29.521Z,11.10
2018-06-04T17:02:58.035Z,10.53
2018-06-04T17:05:26.500Z,12.10
2018-06-04T17:07:54.958Z,10.10
2018-06-04T17:10:23.457Z,10.37
2018-06-04T17:12:51.887Z,11.10
2018-06-04T17:15:20.513Z,10.30
2018-06-04T17:17:49.043Z,10.80
2018-06-04T17:20:17.429Z,10.40
2018-06-04T17:22:45.777Z,10.00
2018-06-04T17:25:14.089Z,11.37
2018-06-04T17:27:42.506Z,11.03
2018-06-04T17:30:10.846Z,10.63
2018-06-04T17:32:39.282Z,10.47
2018-06-04T17:35:07.669Z,11.60
2018-06-04T17:37:36.040Z,11.37
2018-06-04T17:40:04.448Z,11.33
2018-06-04T17:42:32.735Z,10.60
2018-06-04T17:45:01.313Z,11.27
2018-06-04T17:47:29.667Z,11.10
2018-06-04T17:49:58.120Z,11.00
2018-06-04T17:52:26.456Z,10.27
2018-06-04T17:54:54.823Z,12.00
2018-06-04T17:57:23.204Z,11.30
2018-06-04T17:59:51.710Z,10.90
2018-06-04T18:02:20.190Z,10.90
2018-06-04T18:04:48.656Z,11.03
2018-06-04T18:07:17.101Z,11.67
2018-06-04T18:09:45.440Z,10.67
2018-06-04T18:12:13.767Z,10.90
2018-06-04T18:14:42.285Z,10.07
2018-06-04T18:17:10.679Z,10.03
2018-06-04T18:19:39.114Z,10.53
2018-06-04T18:22:07.493Z,10.20
2018-06-04T18:24:35.958Z,11.33
2018-06-04T18:27:04.391Z,11.07
2018-06-04T18:29:32.785Z,10.73
2018-06-04T18:32:01.179Z,11.20
2018-06-04T18:34:29.578Z,11.40
2018-06-04T18:36:57.960Z,11.57
2018-06-04T18:39:26.356Z,10.90
2018-06-04T18:41:54.816Z,11.17
2018-06-04T18:44:23.255Z,10.53
2018-06-04T18:46:51.636Z,9.83
2018-06-04T18:49:20.016Z,10.80
2018-06-04T18:51:48.530Z,10.93
2018-06-04T18:54:16.820Z,10.37
2018-06-04T18:56:45.199Z,9.90
2018-06-04T18:59:13.648Z,11.00
2018-06-04T19:01:41.987Z,10.20
2018-06-04T19:04:10.351Z,9.77
2018-06-04T19:06:38.738Z,9.40
2018-06-04T19:09:09.378Z,9.27
2018-06-04T19:11:38.007Z,9.10
2018-06-04T19:14:06.376Z,10.23
2018-06-04T19:16:35.038Z,8.77
2018-06-04T19:19:03.442Z,10.00
2018-06-04T19:21:31.772Z,9.07
2018-06-04T19:24:00.211Z,9.87
2018-06-04T19:26:28.558Z,9.47
2018-06-04T19:28:56.984Z,10.07
2018-06-04T19:31:25.346Z,9.60
2018-06-04T19:33:53.730Z,9.57
2018-06-04T19:36:22.148Z,9.60
2018-06-04T19:38:50.502Z,9.67
2018-06-04T19:41:18.900Z,9.50
2018-06-04T19:43:47.212Z,9.57
2018-06-04T19:46:15.581Z,10.07
2018-06-04T19:48:43.926Z,9.20
2018-06-04T19:51:12.382Z,9.77
2018-06-04T19:53:41.195Z,9.53
2018-06-04T19:56:09.644Z,9.80
2018-06-04T19:58:38.145Z,10.40
2018-06-04T20:01:06.662Z,11.00
2018-06-04T20:03:35.008Z,11.23
2018-06-04T20:06:03.418Z,11.10
2018-06-04T20:08:32.040Z,10.50
2018-06-04T20:11:00.454Z,10.53
2018-06-04T20:13:29.334Z,10.67
2018-06-04T20:15:57.707Z,12.07
2018-06-04T20:18:26.164Z,11.57
2018-06-04T20:20:54.683Z,11.70
2018-06-04T20:23:23.066Z,12.53
2018-06-04T20:25:51.643Z,10.97
2018-06-04T20:28:20.130Z,12.23
2018-06-04T20:30:48.558Z,10.57
2018-06-04T20:33:17.070Z,11.90
2018-06-04T20:35:45.151Z,10.23
2018-06-04T20:38:13.580Z,11.10
2018-06-04T20:40:42.017Z,11.70
2018-06-04T20:43:10.577Z,12.10
2018-06-04T20:45:38.883Z,10.87
2018-06-04T20:48:07.270Z,11.50
2018-06-04T20:50:35.664Z,10.23
2018-06-04T20:53:04.091Z,11.00
2018-06-04T20:55:32.470Z,11.17
2018-06-04T20:58:00.847Z,12.43
2018-06-04T21:00:29.271Z,11.50
2018-06-04T21:02:57.690Z,11.20
2018-06-04T21:05:26.061Z,12.80
2018-06-04T21:07:54.459Z,11.30
2018-06-04T21:10:22.822Z,11.80
2018-06-04T21:12:51.222Z,12.47
2018-06-04T21:15:19.640Z,12.03
2018-06-04T21:17:48.007Z,11.90
2018-06-04T21:20:16.359Z,11.73
2018-06-04T21:22:44.819Z,12.30
2018-06-04T21:25:13.246Z,11.13
2018-06-04T21:27:41.619Z,11.33
2018-06-04T21:30:10.081Z,11.97
2018-06-04T21:32:42.295Z,11.60
2018-06-04T21:35:10.684Z,10.20
2018-06-04T21:37:39.024Z,11.30
2018-06-04T21:40:07.472Z,12.80
2018-06-04T21:42:35.984Z,11.47
2018-06-04T21:45:04.430Z,11.73
2018-06-04T21:47:32.882Z,12.47
2018-06-04T21:50:01.336Z,11.33
2018-06-04T21:52:29.667Z,12.23
2018-06-04T21:54:58.007Z,12.33
2018-06-04T21:57:26.492Z,12.37
2018-06-04T21:59:54.879Z,12.90
2018-06-04T22:02:23.343Z,10.60
2018-06-04T22:04:51.761Z,12.00
2018-06-04T22:07:20.165Z,11.20
2018-06-04T22:09:48.357Z,11.73
2018-06-04T22:12:16.774Z,11.27
2018-06-04T22:14:45.150Z,11.90
2018-06-04T22:17:13.517Z,12.83
2018-06-04T22:19:41.897Z,12.70
2018-06-04T22:22:10.241Z,12.07
2018-06-04T22:24:38.615Z,13.17
2018-06-04T22:27:07.073Z,10.90
2018-06-04T22:29:35.377Z,12.13
2018-06-04T22:32:03.882Z,11.97
2018-06-04T22:34:32.397Z,13.50
2018-06-04T22:37:00.791Z,12.37
2018-06-04T22:39:29.139Z,12.10
2018-06-04T22:41:57.564Z,11.70
2018-06-04T22:44:25.970Z,12.57
2018-06-04T22:46:54.342Z,12.83
2018-06-04T22:49:23.223Z,11.73
2018-06-04T22:51:51.678Z,13.03
2018-06-04T22:54:20.052Z,11.83
2018-06-04T22:56:48.465Z,13.43
2018-06-04T22:59:16.800Z,12.60
2018-06-04T23:01:45.161Z,12.00
2018-06-04T23:04:13.605Z,12.47
2018-06-04T23:06:41.987Z,12.37
2018-06-04T23:09:10.449Z,13.00
2018-06-04T23:11:38.852Z,13.10
2018-06-04T23:14:07.240Z,12.43
2018-06-04T23:16:35.603Z,11.90
2018-06-04T23:19:03.983Z,12.47
2018-06-04T23:21:32.316Z,12.20
2018-06-04T23:24:01.079Z,11.73
2018-06-04T23:26:29.493Z,13.07
2018-06-04T23:28:57.831Z,13.60
2018-06-04T23:31:26.175Z,12.47
2018-06-04T23:33:54.509Z,13.10
2018-06-04T23:36:22.886Z,13.17
2018-06-04T23:38:51.256Z,13.80
2018-06-04T23:41:19.623Z,13.23
2018-06-04T23:43:48.024Z,12.73
2018-06-04T23:46:16.415Z,11.77
2018-06-04T23:48:44.764Z,11.57
2018-06-04T23:51:13.073Z,11.70
2018-06-04T23:53:41.444Z,11.43
2018-06-04T23:56:09.866Z,11.37
2018-06-04T23:58:38.331Z,11.47
